sensor_id;sensor_type;location;lat;lon;timestamp;temperature;humidity
22379;DHT22;11357;49.990;7.370;2023-10-09T00:00:14;18.30;82.20
22379;DHT22;11357;49.990;7.370;2023-10-09T00:03:00;18.30;82.20
22379;DHT22;11357;49.990;7.370;2023-10-09T00:05:27;18.30;82.20
22379;DHT22;11357;49.990;7.370;2023-10-09T00:08:14;18.30;82.20
22379;DHT22;11357;49.990;7.370;2023-10-09T00:10:58;18.30;82.30
22379;DHT22;11357;49.990;7.370;2023-10-09T00:13:41;18.30;82.30
22379;DHT22;11357;49.990;7.370;2023-10-09T00:16:21;18.30;82.20
22379;DHT22;11357;49.990;7.370;2023-10-09T00:19:05;18.20;82.20
22379;DHT22;11357;49.990;7.370;2023-10-09T00:21:43;18.20;82.10
22379;DHT22;11357;49.990;7.370;2023-10-09T00:24:09;18.20;82.10
22379;DHT22;11357;49.990;7.370;2023-10-09T00:26:53;18.20;82.10
22379;DHT22;11357;49.990;7.370;2023-10-09T00:29:37;18.20;82.10
22379;DHT22;11357;49.990;7.370;2023-10-09T00:32:08;18.30;82.10
22379;DHT22;11357;49.990;7.370;2023-10-09T00:34:55;18.30;82.10
22379;DHT22;11357;49.990;7.370;2023-10-09T00:37:24;18.30;82.10
22379;DHT22;11357;49.990;7.370;2023-10-09T00:39:52;18.20;82.00
22379;DHT22;11357;49.990;7.370;2023-10-09T00:42:24;18.20;81.90
22379;DHT22;11357;49.990;7.370;2023-10-09T00:45:02;18.20;82.20
22379;DHT22;11357;49.990;7.370;2023-10-09T00:47:34;18.20;81.90
22379;DHT22;11357;49.990;7.370;2023-10-09T00:50:07;18.20;81.90
22379;DHT22;11357;49.990;7.370;2023-10-09T00:52:36;18.20;81.90
22379;DHT22;11357;49.990;7.370;2023-10-09T00:55:05;18.20;81.70
22379;DHT22;11357;49.990;7.370;2023-10-09T00:57:43;18.20;81.60
22379;DHT22;11357;49.990;7.370;2023-10-09T01:00:22;18.20;81.60
22379;DHT22;11357;49.990;7.370;2023-10-09T01:03:04;18.20;81.30
22379;DHT22;11357;49.990;7.370;2023-10-09T01:06:01;18.10;81.40
22379;DHT22;11357;49.990;7.370;2023-10-09T01:08:39;18.10;81.30
22379;DHT22;11357;49.990;7.370;2023-10-09T01:11:11;18.10;81.20
22379;DHT22;11357;49.990;7.370;2023-10-09T01:13:44;18.10;81.20
22379;DHT22;11357;49.990;7.370;2023-10-09T01:16:21;18.10;81.20
22379;DHT22;11357;49.990;7.370;2023-10-09T01:18:55;18.10;81.20
22379;DHT22;11357;49.990;7.370;2023-10-09T01:21:24;18.10;81.10
22379;DHT22;11357;49.990;7.370;2023-10-09T01:23:52;18.20;81.10
22379;DHT22;11357;49.990;7.370;2023-10-09T01:26:46;18.10;81.00
22379;DHT22;11357;49.990;7.370;2023-10-09T01:29:20;18.10;81.00
22379;DHT22;11357;49.990;7.370;2023-10-09T01:31:54;18.10;81.10
22379;DHT22;11357;49.990;7.370;2023-10-09T01:34:30;18.10;81.00
22379;DHT22;11357;49.990;7.370;2023-10-09T01:37:10;18.10;81.00
22379;DHT22;11357;49.990;7.370;2023-10-09T01:39:48;18.10;80.90
22379;DHT22;11357;49.990;7.370;2023-10-09T01:42:16;18.10;80.90
22379;DHT22;11357;49.990;7.370;2023-10-09T01:45:02;18.00;80.90
22379;DHT22;11357;49.990;7.370;2023-10-09T01:47:43;18.00;81.10
22379;DHT22;11357;49.990;7.370;2023-10-09T01:50:20;18.00;81.30
22379;DHT22;11357;49.990;7.370;2023-10-09T01:53:00;18.00;81.40
22379;DHT22;11357;49.990;7.370;2023-10-09T01:55:31;18.10;81.20
22379;DHT22;11357;49.990;7.370;2023-10-09T01:58:09;18.10;81.00
22379;DHT22;11357;49.990;7.370;2023-10-09T02:00:42;18.10;80.80
22379;DHT22;11357;49.990;7.370;2023-10-09T02:03:13;18.10;80.70
22379;DHT22;11357;49.990;7.370;2023-10-09T02:05:52;18.20;80.70
22379;DHT22;11357;49.990;7.370;2023-10-09T02:08:28;18.10;81.40
22379;DHT22;11357;49.990;7.370;2023-10-09T02:10:55;18.10;80.70
22379;DHT22;11357;49.990;7.370;2023-10-09T02:13:22;18.00;80.70
22379;DHT22;11357;49.990;7.370;2023-10-09T02:16:00;18.00;81.00
22379;DHT22;11357;49.990;7.370;2023-10-09T02:18:51;17.90;81.30
22379;DHT22;11357;49.990;7.370;2023-10-09T02:21:24;17.90;81.70
22379;DHT22;11357;49.990;7.370;2023-10-09T02:24:02;17.90;81.80
22379;DHT22;11357;49.990;7.370;2023-10-09T02:26:31;18.00;81.90
22379;DHT22;11357;49.990;7.370;2023-10-09T02:29:12;18.10;82.00
22379;DHT22;11357;49.990;7.370;2023-10-09T02:31:45;18.10;81.90
22379;DHT22;11357;49.990;7.370;2023-10-09T02:34:17;18.10;81.90
22379;DHT22;11357;49.990;7.370;2023-10-09T02:36:47;18.10;81.80
22379;DHT22;11357;49.990;7.370;2023-10-09T02:39:24;18.20;81.80
22379;DHT22;11357;49.990;7.370;2023-10-09T02:41:54;18.20;81.80
22379;DHT22;11357;49.990;7.370;2023-10-09T02:44:31;18.20;81.70
22379;DHT22;11357;49.990;7.370;2023-10-09T02:47:04;18.20;81.70
22379;DHT22;11357;49.990;7.370;2023-10-09T02:49:37;18.20;81.80
22379;DHT22;11357;49.990;7.370;2023-10-09T02:52:05;18.20;81.80
22379;DHT22;11357;49.990;7.370;2023-10-09T02:54:33;18.20;81.80
22379;DHT22;11357;49.990;7.370;2023-10-09T02:57:07;18.20;81.70
22379;DHT22;11357;49.990;7.370;2023-10-09T02:59:36;18.20;81.90
22379;DHT22;11357;49.990;7.370;2023-10-09T03:02:07;18.20;81.80
22379;DHT22;11357;49.990;7.370;2023-10-09T03:04:33;18.20;81.60
22379;DHT22;11357;49.990;7.370;2023-10-09T03:07:02;18.20;81.50
22379;DHT22;11357;49.990;7.370;2023-10-09T03:09:29;18.20;81.40
22379;DHT22;11357;49.990;7.370;2023-10-09T03:11:58;18.10;81.20
22379;DHT22;11357;49.990;7.370;2023-10-09T03:14:36;18.10;81.40
22379;DHT22;11357;49.990;7.370;2023-10-09T03:17:04;18.00;81.70
22379;DHT22;11357;49.990;7.370;2023-10-09T03:19:32;17.90;82.00
22379;DHT22;11357;49.990;7.370;2023-10-09T03:22:04;17.80;82.50
22379;DHT22;11357;49.990;7.370;2023-10-09T03:24:30;17.80;82.80
22379;DHT22;11357;49.990;7.370;2023-10-09T03:27:00;17.80;82.90
22379;DHT22;11357;49.990;7.370;2023-10-09T03:29:26;17.80;82.70
22379;DHT22;11357;49.990;7.370;2023-10-09T03:31:52;17.90;82.60
22379;DHT22;11357;49.990;7.370;2023-10-09T03:34:20;17.90;82.40
22379;DHT22;11357;49.990;7.370;2023-10-09T03:36:46;17.90;82.20
22379;DHT22;11357;49.990;7.370;2023-10-09T03:39:13;17.90;82.10
22379;DHT22;11357;49.990;7.370;2023-10-09T03:41:58;17.90;82.00
22379;DHT22;11357;49.990;7.370;2023-10-09T03:44:31;17.80;81.90
22379;DHT22;11357;49.990;7.370;2023-10-09T03:46:59;17.80;81.90
22379;DHT22;11357;49.990;7.370;2023-10-09T03:49:24;17.80;82.00
22379;DHT22;11357;49.990;7.370;2023-10-09T03:51:51;17.60;83.10
22379;DHT22;11357;49.990;7.370;2023-10-09T03:54:18;17.50;83.00
22379;DHT22;11357;49.990;7.370;2023-10-09T03:56:49;17.40;83.50
22379;DHT22;11357;49.990;7.370;2023-10-09T03:59:20;17.40;83.90
22379;DHT22;11357;49.990;7.370;2023-10-09T04:01:47;17.40;83.70
22379;DHT22;11357;49.990;7.370;2023-10-09T04:04:14;17.50;83.60
22379;DHT22;11357;49.990;7.370;2023-10-09T04:06:40;17.50;83.50
22379;DHT22;11357;49.990;7.370;2023-10-09T04:09:09;17.60;83.50
22379;DHT22;11357;49.990;7.370;2023-10-09T04:11:45;17.60;83.40
22379;DHT22;11357;49.990;7.370;2023-10-09T04:14:12;17.60;83.30
22379;DHT22;11357;49.990;7.370;2023-10-09T04:16:45;17.60;83.30
22379;DHT22;11357;49.990;7.370;2023-10-09T04:19:17;17.50;83.80
22379;DHT22;11357;49.990;7.370;2023-10-09T04:21:48;17.50;84.20
22379;DHT22;11357;49.990;7.370;2023-10-09T04:24:14;17.60;84.20
22379;DHT22;11357;49.990;7.370;2023-10-09T04:26:44;17.70;84.20
22379;DHT22;11357;49.990;7.370;2023-10-09T04:29:10;17.60;84.00
22379;DHT22;11357;49.990;7.370;2023-10-09T04:31:47;17.70;83.80
22379;DHT22;11357;49.990;7.370;2023-10-09T04:34:20;17.70;83.60
22379;DHT22;11357;49.990;7.370;2023-10-09T04:37:03;17.70;83.60
22379;DHT22;11357;49.990;7.370;2023-10-09T04:39:43;17.70;83.70
22379;DHT22;11357;49.990;7.370;2023-10-09T04:42:14;17.70;83.80
22379;DHT22;11357;49.990;7.370;2023-10-09T04:44:46;17.60;83.70
22379;DHT22;11357;49.990;7.370;2023-10-09T04:47:33;17.60;83.70
22379;DHT22;11357;49.990;7.370;2023-10-09T04:50:07;17.60;83.80
22379;DHT22;11357;49.990;7.370;2023-10-09T04:52:32;17.60;84.00
22379;DHT22;11357;49.990;7.370;2023-10-09T04:54:59;17.60;83.80
22379;DHT22;11357;49.990;7.370;2023-10-09T04:57:41;17.60;83.90
22379;DHT22;11357;49.990;7.370;2023-10-09T05:00:18;17.60;83.90
22379;DHT22;11357;49.990;7.370;2023-10-09T05:02:57;17.70;84.10
22379;DHT22;11357;49.990;7.370;2023-10-09T05:05:25;17.60;83.90
22379;DHT22;11357;49.990;7.370;2023-10-09T05:08:26;17.60;84.10
22379;DHT22;11357;49.990;7.370;2023-10-09T05:10:54;17.50;84.40
22379;DHT22;11357;49.990;7.370;2023-10-09T05:13:29;17.60;84.30
22379;DHT22;11357;49.990;7.370;2023-10-09T05:18:39;17.60;84.70
22379;DHT22;11357;49.990;7.370;2023-10-09T05:21:08;17.60;85.10
22379;DHT22;11357;49.990;7.370;2023-10-09T05:23:52;17.50;85.30
22379;DHT22;11357;49.990;7.370;2023-10-09T05:26:37;17.60;85.10
22379;DHT22;11357;49.990;7.370;2023-10-09T05:29:15;17.60;85.00
22379;DHT22;11357;49.990;7.370;2023-10-09T05:31:59;17.70;85.00
22379;DHT22;11357;49.990;7.370;2023-10-09T05:34:42;17.70;85.00
22379;DHT22;11357;49.990;7.370;2023-10-09T05:37:26;17.70;85.00
22379;DHT22;11357;49.990;7.370;2023-10-09T05:39:59;17.70;85.00
22379;DHT22;11357;49.990;7.370;2023-10-09T05:42:35;17.60;84.90
22379;DHT22;11357;49.990;7.370;2023-10-09T05:45:17;17.60;85.00
22379;DHT22;11357;49.990;7.370;2023-10-09T05:47:43;17.60;85.10
22379;DHT22;11357;49.990;7.370;2023-10-09T05:50:28;17.60;85.10
22379;DHT22;11357;49.990;7.370;2023-10-09T05:52:55;17.60;85.50
22379;DHT22;11357;49.990;7.370;2023-10-09T05:55:25;17.60;85.50
22379;DHT22;11357;49.990;7.370;2023-10-09T05:58:09;17.60;85.60
22379;DHT22;11357;49.990;7.370;2023-10-09T06:00:53;17.60;85.50
22379;DHT22;11357;49.990;7.370;2023-10-09T06:03:31;17.70;85.50
22379;DHT22;11357;49.990;7.370;2023-10-09T06:06:22;17.60;85.70
22379;DHT22;11357;49.990;7.370;2023-10-09T06:09:08;17.60;86.10
22379;DHT22;11357;49.990;7.370;2023-10-09T06:11:43;17.60;86.30
22379;DHT22;11357;49.990;7.370;2023-10-09T06:14:22;17.60;86.60
22379;DHT22;11357;49.990;7.370;2023-10-09T06:17:11;17.60;86.80
22379;DHT22;11357;49.990;7.370;2023-10-09T06:19:37;17.70;86.70
22379;DHT22;11357;49.990;7.370;2023-10-09T06:22:08;17.80;86.70
22379;DHT22;11357;49.990;7.370;2023-10-09T06:24:38;17.80;86.40
22379;DHT22;11357;49.990;7.370;2023-10-09T06:27:04;17.90;86.30
22379;DHT22;11357;49.990;7.370;2023-10-09T06:29:30;17.90;86.60
22379;DHT22;11357;49.990;7.370;2023-10-09T06:32:06;17.90;86.80
22379;DHT22;11357;49.990;7.370;2023-10-09T06:34:45;17.90;86.90
22379;DHT22;11357;49.990;7.370;2023-10-09T06:37:12;17.90;86.80
22379;DHT22;11357;49.990;7.370;2023-10-09T06:39:50;18.00;86.80
22379;DHT22;11357;49.990;7.370;2023-10-09T06:42:35;18.00;86.90
22379;DHT22;11357;49.990;7.370;2023-10-09T06:47:34;18.10;87.00
22379;DHT22;11357;49.990;7.370;2023-10-09T06:50:10;18.10;86.90
22379;DHT22;11357;49.990;7.370;2023-10-09T06:52:48;18.10;86.90
22379;DHT22;11357;49.990;7.370;2023-10-09T06:55:26;18.20;86.90
22379;DHT22;11357;49.990;7.370;2023-10-09T06:58:01;18.30;87.00
22379;DHT22;11357;49.990;7.370;2023-10-09T07:00:29;18.30;86.70
22379;DHT22;11357;49.990;7.370;2023-10-09T07:03:14;18.40;86.60
22379;DHT22;11357;49.990;7.370;2023-10-09T07:05:43;18.40;86.50
22379;DHT22;11357;49.990;7.370;2023-10-09T07:08:34;18.50;86.40
22379;DHT22;11357;49.990;7.370;2023-10-09T07:11:06;18.50;86.20
22379;DHT22;11357;49.990;7.370;2023-10-09T07:17:04;18.60;86.30
22379;DHT22;11357;49.990;7.370;2023-10-09T07:19:41;18.60;86.30
22379;DHT22;11357;49.990;7.370;2023-10-09T07:22:11;18.70;86.30
22379;DHT22;11357;49.990;7.370;2023-10-09T07:24:46;18.70;86.30
22379;DHT22;11357;49.990;7.370;2023-10-09T07:27:19;18.70;86.30
22379;DHT22;11357;49.990;7.370;2023-10-09T07:30:06;18.70;86.30
22379;DHT22;11357;49.990;7.370;2023-10-09T07:35:44;18.90;86.10
22379;DHT22;11357;49.990;7.370;2023-10-09T07:40:38;19.00;85.90
22379;DHT22;11357;49.990;7.370;2023-10-09T07:43:23;19.00;85.80
22379;DHT22;11357;49.990;7.370;2023-10-09T07:46:07;19.10;85.70
22379;DHT22;11357;49.990;7.370;2023-10-09T07:48:51;19.10;85.70
22379;DHT22;11357;49.990;7.370;2023-10-09T07:51:20;19.20;85.50
22379;DHT22;11357;49.990;7.370;2023-10-09T07:53:56;19.20;85.40
22379;DHT22;11357;49.990;7.370;2023-10-09T07:56:26;19.30;85.50
22379;DHT22;11357;49.990;7.370;2023-10-09T07:58:58;19.40;85.20
22379;DHT22;11357;49.990;7.370;2023-10-09T08:01:26;19.50;85.10
22379;DHT22;11357;49.990;7.370;2023-10-09T08:04:01;19.50;84.90
22379;DHT22;11357;49.990;7.370;2023-10-09T08:06:30;19.60;84.90
22379;DHT22;11357;49.990;7.370;2023-10-09T08:09:11;19.70;84.80
22379;DHT22;11357;49.990;7.370;2023-10-09T08:11:41;19.80;84.60
22379;DHT22;11357;49.990;7.370;2023-10-09T08:14:11;19.90;84.50
22379;DHT22;11357;49.990;7.370;2023-10-09T08:16:56;20.00;84.50
22379;DHT22;11357;49.990;7.370;2023-10-09T08:19:50;20.10;84.40
22379;DHT22;11357;49.990;7.370;2023-10-09T08:22:37;20.20;84.40
22379;DHT22;11357;49.990;7.370;2023-10-09T08:25:12;20.20;83.80
22379;DHT22;11357;49.990;7.370;2023-10-09T08:27:59;20.10;83.60
22379;DHT22;11357;49.990;7.370;2023-10-09T08:30:45;20.10;83.60
22379;DHT22;11357;49.990;7.370;2023-10-09T08:33:20;20.20;83.60
22379;DHT22;11357;49.990;7.370;2023-10-09T08:35:56;20.30;83.50
22379;DHT22;11357;49.990;7.370;2023-10-09T08:38:29;20.30;83.60
22379;DHT22;11357;49.990;7.370;2023-10-09T08:41:12;20.50;83.40
22379;DHT22;11357;49.990;7.370;2023-10-09T08:43:50;20.60;83.60
22379;DHT22;11357;49.990;7.370;2023-10-09T08:46:20;20.60;82.60
22379;DHT22;11357;49.990;7.370;2023-10-09T08:48:46;20.70;82.30
22379;DHT22;11357;49.990;7.370;2023-10-09T08:51:12;20.70;82.30
22379;DHT22;11357;49.990;7.370;2023-10-09T08:53:39;20.70;82.00
22379;DHT22;11357;49.990;7.370;2023-10-09T08:56:16;20.70;81.70
22379;DHT22;11357;49.990;7.370;2023-10-09T08:58:52;20.70;81.20
22379;DHT22;11357;49.990;7.370;2023-10-09T09:01:20;20.70;81.30
22379;DHT22;11357;49.990;7.370;2023-10-09T09:03:47;20.70;81.10
22379;DHT22;11357;49.990;7.370;2023-10-09T09:06:13;20.70;80.90
22379;DHT22;11357;49.990;7.370;2023-10-09T09:08:40;20.80;81.30
22379;DHT22;11357;49.990;7.370;2023-10-09T09:11:14;20.80;81.20
22379;DHT22;11357;49.990;7.370;2023-10-09T09:16:18;20.90;80.30
22379;DHT22;11357;49.990;7.370;2023-10-09T09:18:52;20.90;80.00
22379;DHT22;11357;49.990;7.370;2023-10-09T09:21:39;20.80;80.30
22379;DHT22;11357;49.990;7.370;2023-10-09T09:24:07;20.90;80.00
22379;DHT22;11357;49.990;7.370;2023-10-09T09:26:50;21.10;80.00
22379;DHT22;11357;49.990;7.370;2023-10-09T09:32:05;21.20;78.80
22379;DHT22;11357;49.990;7.370;2023-10-09T09:34:53;21.30;78.60
22379;DHT22;11357;49.990;7.370;2023-10-09T09:37:24;21.30;78.00
22379;DHT22;11357;49.990;7.370;2023-10-09T09:40:00;21.40;78.10
22379;DHT22;11357;49.990;7.370;2023-10-09T09:42:30;21.40;77.60
22379;DHT22;11357;49.990;7.370;2023-10-09T09:45:00;21.40;77.40
22379;DHT22;11357;49.990;7.370;2023-10-09T09:47:27;21.50;77.30
22379;DHT22;11357;49.990;7.370;2023-10-09T09:49:54;21.50;78.10
22379;DHT22;11357;49.990;7.370;2023-10-09T09:52:30;21.60;77.30
22379;DHT22;11357;49.990;7.370;2023-10-09T09:55:05;21.70;77.10
22379;DHT22;11357;49.990;7.370;2023-10-09T09:57:33;21.70;76.40
22379;DHT22;11357;49.990;7.370;2023-10-09T10:00:06;21.70;76.10
22379;DHT22;11357;49.990;7.370;2023-10-09T10:02:44;21.80;75.60
22379;DHT22;11357;49.990;7.370;2023-10-09T10:05:11;22.00;75.40
22379;DHT22;11357;49.990;7.370;2023-10-09T10:07:38;22.30;75.40
22379;DHT22;11357;49.990;7.370;2023-10-09T10:10:36;22.60;74.70
22379;DHT22;11357;49.990;7.370;2023-10-09T10:16:16;22.90;74.90
22379;DHT22;11357;49.990;7.370;2023-10-09T10:18:58;23.00;73.20
22379;DHT22;11357;49.990;7.370;2023-10-09T10:21:47;23.00;73.20
22379;DHT22;11357;49.990;7.370;2023-10-09T10:30:27;23.20;72.40
22379;DHT22;11357;49.990;7.370;2023-10-09T10:32:59;23.40;72.50
22379;DHT22;11357;49.990;7.370;2023-10-09T10:35:35;23.60;71.90
22379;DHT22;11357;49.990;7.370;2023-10-09T10:38:33;23.80;71.50
22379;DHT22;11357;49.990;7.370;2023-10-09T10:41:16;24.10;70.60
22379;DHT22;11357;49.990;7.370;2023-10-09T10:43:45;24.20;70.20
22379;DHT22;11357;49.990;7.370;2023-10-09T10:46:21;24.50;69.40
22379;DHT22;11357;49.990;7.370;2023-10-09T10:48:59;24.80;67.90
22379;DHT22;11357;49.990;7.370;2023-10-09T10:51:34;25.10;67.20
22379;DHT22;11357;49.990;7.370;2023-10-09T10:54:04;25.50;66.40
22379;DHT22;11357;49.990;7.370;2023-10-09T10:56:50;25.80;65.10
22379;DHT22;11357;49.990;7.370;2023-10-09T11:02:59;26.20;64.40
22379;DHT22;11357;49.990;7.370;2023-10-09T17:45:00;22.10;64.30
22379;DHT22;11357;49.990;7.370;2023-10-09T17:47:30;22.10;64.50
22379;DHT22;11357;49.990;7.370;2023-10-09T17:50:05;22.00;64.90
22379;DHT22;11357;49.990;7.370;2023-10-09T17:52:36;22.00;65.10
22379;DHT22;11357;49.990;7.370;2023-10-09T17:55:03;21.90;65.10
22379;DHT22;11357;49.990;7.370;2023-10-09T17:57:33;21.90;65.40
22379;DHT22;11357;49.990;7.370;2023-10-09T17:59:59;21.80;65.40
22379;DHT22;11357;49.990;7.370;2023-10-09T18:02:24;21.80;65.50
22379;DHT22;11357;49.990;7.370;2023-10-09T18:04:54;21.70;65.60
22379;DHT22;11357;49.990;7.370;2023-10-09T18:07:20;21.70;65.60
22379;DHT22;11357;49.990;7.370;2023-10-09T18:09:46;21.60;65.70
22379;DHT22;11357;49.990;7.370;2023-10-09T18:12:21;21.60;65.90
22379;DHT22;11357;49.990;7.370;2023-10-09T18:14:51;21.50;66.00
22379;DHT22;11357;49.990;7.370;2023-10-09T18:17:20;21.50;66.10
22379;DHT22;11357;49.990;7.370;2023-10-09T18:19:47;21.40;66.40
22379;DHT22;11357;49.990;7.370;2023-10-09T18:22:16;21.40;66.70
22379;DHT22;11357;49.990;7.370;2023-10-09T18:24:41;21.30;66.80
22379;DHT22;11357;49.990;7.370;2023-10-09T18:27:08;21.30;66.80
22379;DHT22;11357;49.990;7.370;2023-10-09T18:29:34;21.30;67.10
22379;DHT22;11357;49.990;7.370;2023-10-09T18:32:00;21.30;67.10
22379;DHT22;11357;49.990;7.370;2023-10-09T18:34:26;21.30;67.20
22379;DHT22;11357;49.990;7.370;2023-10-09T18:36:55;21.20;67.40
22379;DHT22;11357;49.990;7.370;2023-10-09T18:39:21;21.20;67.70
22379;DHT22;11357;49.990;7.370;2023-10-09T18:41:50;21.10;67.70
22379;DHT22;11357;49.990;7.370;2023-10-09T18:44:17;21.10;67.80
22379;DHT22;11357;49.990;7.370;2023-10-09T18:46:45;21.00;67.70
22379;DHT22;11357;49.990;7.370;2023-10-09T18:49:12;20.90;67.70
22379;DHT22;11357;49.990;7.370;2023-10-09T18:51:38;20.90;67.80
22379;DHT22;11357;49.990;7.370;2023-10-09T18:54:07;20.80;67.80
22379;DHT22;11357;49.990;7.370;2023-10-09T18:56:33;20.70;67.80
22379;DHT22;11357;49.990;7.370;2023-10-09T18:59:00;20.60;67.90
22379;DHT22;11357;49.990;7.370;2023-10-09T19:01:36;20.50;68.00
22379;DHT22;11357;49.990;7.370;2023-10-09T19:04:02;20.50;68.30
22379;DHT22;11357;49.990;7.370;2023-10-09T19:06:30;20.50;68.30
22379;DHT22;11357;49.990;7.370;2023-10-09T19:08:55;20.50;68.30
22379;DHT22;11357;49.990;7.370;2023-10-09T19:11:24;20.40;68.20
22379;DHT22;11357;49.990;7.370;2023-10-09T19:13:50;20.40;68.30
22379;DHT22;11357;49.990;7.370;2023-10-09T19:16:16;20.40;68.30
22379;DHT22;11357;49.990;7.370;2023-10-09T19:18:42;20.30;68.40
22379;DHT22;11357;49.990;7.370;2023-10-09T19:21:09;20.20;68.40
22379;DHT22;11357;49.990;7.370;2023-10-09T19:23:39;20.10;68.40
22379;DHT22;11357;49.990;7.370;2023-10-09T19:26:09;20.10;68.50
22379;DHT22;11357;49.990;7.370;2023-10-09T19:28:35;20.00;68.60
22379;DHT22;11357;49.990;7.370;2023-10-09T19:31:09;20.00;68.80
22379;DHT22;11357;49.990;7.370;2023-10-09T19:33:36;19.90;68.90
22379;DHT22;11357;49.990;7.370;2023-10-09T19:36:06;19.90;68.90
22379;DHT22;11357;49.990;7.370;2023-10-09T19:38:45;19.80;69.10
22379;DHT22;11357;49.990;7.370;2023-10-09T19:41:16;19.80;69.10
22379;DHT22;11357;49.990;7.370;2023-10-09T19:43:45;19.90;69.20
22379;DHT22;11357;49.990;7.370;2023-10-09T19:46:10;19.80;69.20
22379;DHT22;11357;49.990;7.370;2023-10-09T19:48:41;19.80;69.20
22379;DHT22;11357;49.990;7.370;2023-10-09T19:51:11;19.80;69.10
22379;DHT22;11357;49.990;7.370;2023-10-09T19:53:41;19.70;69.00
22379;DHT22;11357;49.990;7.370;2023-10-09T19:56:08;19.60;69.00
22379;DHT22;11357;49.990;7.370;2023-10-09T19:58:36;19.50;69.10
22379;DHT22;11357;49.990;7.370;2023-10-09T20:01:09;19.50;69.20
22379;DHT22;11357;49.990;7.370;2023-10-09T20:03:36;19.50;69.40
22379;DHT22;11357;49.990;7.370;2023-10-09T20:06:03;19.50;69.30
22379;DHT22;11357;49.990;7.370;2023-10-09T20:08:29;19.40;69.40
22379;DHT22;11357;49.990;7.370;2023-10-09T20:10:55;19.40;69.50
22379;DHT22;11357;49.990;7.370;2023-10-09T20:13:20;19.40;69.40
22379;DHT22;11357;49.990;7.370;2023-10-09T20:15:58;19.40;69.50
22379;DHT22;11357;49.990;7.370;2023-10-09T20:18:23;19.40;69.80
22379;DHT22;11357;49.990;7.370;2023-10-09T20:20:49;19.30;69.70
22379;DHT22;11357;49.990;7.370;2023-10-09T20:23:15;19.30;69.70
22379;DHT22;11357;49.990;7.370;2023-10-09T20:25:42;19.30;69.80
22379;DHT22;11357;49.990;7.370;2023-10-09T20:28:08;19.20;70.00
22379;DHT22;11357;49.990;7.370;2023-10-09T20:30:36;19.20;70.00
22379;DHT22;11357;49.990;7.370;2023-10-09T20:33:02;19.20;70.10
22379;DHT22;11357;49.990;7.370;2023-10-09T20:35:28;19.20;70.20
22379;DHT22;11357;49.990;7.370;2023-10-09T20:37:55;19.20;70.10
22379;DHT22;11357;49.990;7.370;2023-10-09T20:40:24;19.10;70.10
22379;DHT22;11357;49.990;7.370;2023-10-09T20:42:50;19.10;70.40
22379;DHT22;11357;49.990;7.370;2023-10-09T20:45:19;19.00;70.40
22379;DHT22;11357;49.990;7.370;2023-10-09T20:47:48;19.00;70.50
22379;DHT22;11357;49.990;7.370;2023-10-09T20:50:21;19.00;70.50
22379;DHT22;11357;49.990;7.370;2023-10-09T20:52:47;19.00;70.60
22379;DHT22;11357;49.990;7.370;2023-10-09T20:55:15;18.90;70.60
22379;DHT22;11357;49.990;7.370;2023-10-09T20:57:53;18.90;70.70
22379;DHT22;11357;49.990;7.370;2023-10-09T21:00:23;19.00;70.80
22379;DHT22;11357;49.990;7.370;2023-10-09T21:02:50;19.00;70.70
22379;DHT22;11357;49.990;7.370;2023-10-09T21:05:19;19.00;70.70
22379;DHT22;11357;49.990;7.370;2023-10-09T21:07:47;19.00;70.80
22379;DHT22;11357;49.990;7.370;2023-10-09T21:10:14;19.00;70.90
22379;DHT22;11357;49.990;7.370;2023-10-09T21:12:44;19.00;71.10
22379;DHT22;11357;49.990;7.370;2023-10-09T21:15:10;18.90;71.00
22379;DHT22;11357;49.990;7.370;2023-10-09T21:17:39;18.90;71.10
22379;DHT22;11357;49.990;7.370;2023-10-09T21:20:06;18.90;71.20
22379;DHT22;11357;49.990;7.370;2023-10-09T21:22:36;18.80;71.30
22379;DHT22;11357;49.990;7.370;2023-10-09T21:25:06;18.80;71.40
22379;DHT22;11357;49.990;7.370;2023-10-09T21:27:33;18.80;71.50
22379;DHT22;11357;49.990;7.370;2023-10-09T21:29:59;18.80;71.70
22379;DHT22;11357;49.990;7.370;2023-10-09T21:32:25;18.80;71.80
22379;DHT22;11357;49.990;7.370;2023-10-09T21:34:53;18.70;71.80
22379;DHT22;11357;49.990;7.370;2023-10-09T21:37:19;18.70;71.90
22379;DHT22;11357;49.990;7.370;2023-10-09T21:39:46;18.70;72.00
22379;DHT22;11357;49.990;7.370;2023-10-09T21:42:11;18.60;72.00
22379;DHT22;11357;49.990;7.370;2023-10-09T21:44:37;18.60;72.10
22379;DHT22;11357;49.990;7.370;2023-10-09T21:47:03;18.60;72.10
22379;DHT22;11357;49.990;7.370;2023-10-09T21:49:35;18.60;72.20
22379;DHT22;11357;49.990;7.370;2023-10-09T21:52:00;18.60;72.20
22379;DHT22;11357;49.990;7.370;2023-10-09T21:54:27;18.60;72.20
22379;DHT22;11357;49.990;7.370;2023-10-09T21:56:53;18.60;72.20
22379;DHT22;11357;49.990;7.370;2023-10-09T21:59:19;18.50;72.20
22379;DHT22;11357;49.990;7.370;2023-10-09T22:01:49;18.50;72.30
22379;DHT22;11357;49.990;7.370;2023-10-09T22:04:15;18.40;72.40
22379;DHT22;11357;49.990;7.370;2023-10-09T22:06:41;18.40;72.50
22379;DHT22;11357;49.990;7.370;2023-10-09T22:09:08;18.30;72.40
22379;DHT22;11357;49.990;7.370;2023-10-09T22:11:40;18.30;72.60
22379;DHT22;11357;49.990;7.370;2023-10-09T22:14:05;18.30;72.60
22379;DHT22;11357;49.990;7.370;2023-10-09T22:16:32;18.20;72.60
22379;DHT22;11357;49.990;7.370;2023-10-09T22:18:59;18.20;72.70
22379;DHT22;11357;49.990;7.370;2023-10-09T22:21:25;18.20;72.70
22379;DHT22;11357;49.990;7.370;2023-10-09T22:23:51;18.20;72.90
22379;DHT22;11357;49.990;7.370;2023-10-09T22:26:19;18.10;72.90
22379;DHT22;11357;49.990;7.370;2023-10-09T22:28:48;18.10;73.00
22379;DHT22;11357;49.990;7.370;2023-10-09T22:31:14;18.10;73.00
22379;DHT22;11357;49.990;7.370;2023-10-09T22:33:41;18.00;73.00
22379;DHT22;11357;49.990;7.370;2023-10-09T22:36:19;18.00;73.20
22379;DHT22;11357;49.990;7.370;2023-10-09T22:38:52;17.90;73.40
22379;DHT22;11357;49.990;7.370;2023-10-09T22:41:24;17.80;73.60
22379;DHT22;11357;49.990;7.370;2023-10-09T22:43:54;17.80;73.70
22379;DHT22;11357;49.990;7.370;2023-10-09T22:46:20;17.70;73.70
22379;DHT22;11357;49.990;7.370;2023-10-09T22:48:47;17.70;73.80
22379;DHT22;11357;49.990;7.370;2023-10-09T22:51:25;17.70;74.00
22379;DHT22;11357;49.990;7.370;2023-10-09T22:53:55;17.60;74.20
22379;DHT22;11357;49.990;7.370;2023-10-09T22:56:26;17.60;74.20
22379;DHT22;11357;49.990;7.370;2023-10-09T22:58:55;17.60;74.20
22379;DHT22;11357;49.990;7.370;2023-10-09T23:01:21;17.70;74.30
22379;DHT22;11357;49.990;7.370;2023-10-09T23:03:53;17.70;75.10
22379;DHT22;11357;49.990;7.370;2023-10-09T23:06:57;17.60;74.30
22379;DHT22;11357;49.990;7.370;2023-10-09T23:09:38;17.60;74.40
22379;DHT22;11357;49.990;7.370;2023-10-09T23:12:19;17.60;74.50
22379;DHT22;11357;49.990;7.370;2023-10-09T23:14:53;17.50;74.60